»·PEaware :: WAT540 KWHP-KLAS

WAT540 :: KWHP-KLAS

FLIGHT INFORMATION

Flight Status: Arrived
Operator:
Walker Air Transport
More flights by this operator :: More flights under this callsign
Pilot: Michael R. (33632)
Aircraft: PIPER PA-30 TWIN COMANCHE
(PA30)
More flights by this aircraft type
Origin: KWHP Whiteman
United States
Destination: KLAS McCarran Intl
United States
More flights between these airports :: More routes between these airports
Route:
File this flight plan on PilotEdge
Remarks:
Altitude:
(Current/Filed)
10,500ft
Speed:
(Current/Filed)
160kts
Departed: 15-Feb-21 12:25 PM
Arrived: 15-Feb-21 01:44 PM
Distance/Time
Traveled:
193nm/1:19
Distance/Time
To Go:
Arrived

Flight Plot

Page will automatically refresh every two minutes.

Flight plan parsing failed; only flown route is shown


Map Options




Map Legend


Flown Route
Filed Route
Departure Airport
Arrival Airport
Navaid (VOR, NDB)
Fix

Horizontal Profiles

Position Reports

Time Latitude Longitude Heading Altitude Ground
Speed
15-Feb-21 11:56 34.259520 -118.412205 318 991ft 0kts
15-Feb-21 11:57 34.259520 -118.412205 318 991ft 0kts
15-Feb-21 11:58 34.259520 -118.412205 318 991ft 0kts
15-Feb-21 11:59 34.259520 -118.412205 318 991ft 0kts
15-Feb-21 12:00 34.259520 -118.412205 318 991ft 0kts
15-Feb-21 12:01 34.259520 -118.412205 318 991ft 0kts
15-Feb-21 12:02 34.259520 -118.412205 318 991ft 0kts
15-Feb-21 12:03 34.259520 -118.412205 318 991ft 0kts
15-Feb-21 12:04 34.259520 -118.412205 318 991ft 0kts
15-Feb-21 12:05 34.259520 -118.412205 318 991ft 0kts
15-Feb-21 12:06 34.259520 -118.412205 318 991ft 0kts
15-Feb-21 12:07 34.259520 -118.412205 318 991ft 0kts
15-Feb-21 12:09 34.259520 -118.412205 318 991ft 0kts
15-Feb-21 12:10 34.259520 -118.412205 318 991ft 0kts
15-Feb-21 12:11 34.259520 -118.412205 318 991ft 0kts
15-Feb-21 12:12 34.259520 -118.412205 318 991ft 0kts
15-Feb-21 12:13 34.259520 -118.412205 318 991ft 0kts
15-Feb-21 12:14 34.259520 -118.412205 318 991ft 0kts
15-Feb-21 12:15 34.259520 -118.412205 318 991ft 0kts
15-Feb-21 12:16 34.259520 -118.412205 318 991ft 0kts
15-Feb-21 12:17 34.259520 -118.412205 318 991ft 0kts
15-Feb-21 12:18 34.259520 -118.412205 318 991ft 0kts
15-Feb-21 12:19 34.259520 -118.412205 318 991ft 0kts
15-Feb-21 12:20 34.259520 -118.412205 318 991ft 0kts
15-Feb-21 12:21 34.258277 -118.411702 139 983ft 15kts
15-Feb-21 12:22 34.255587 -118.408872 152 969ft 0kts
15-Feb-21 12:23 34.255588 -118.408872 152 969ft 0kts
15-Feb-21 12:24 34.255310 -118.408898 193 968ft 8kts
15-Feb-21 12:25 34.268030 -118.422360 322 1316ft 105kts
15-Feb-21 12:26 34.293658 -118.445533 327 2210ft 119kts
15-Feb-21 12:27 34.322740 -118.472785 327 2825ft 133kts
15-Feb-21 12:28 34.350739 -118.499102 329 3626ft 126kts
15-Feb-21 12:29 34.379102 -118.514002 30 4573ft 104kts
15-Feb-21 12:29 34.397163 -118.496651 46 5348ft 97kts
15-Feb-21 12:31 34.418157 -118.469063 46 6296ft 97kts
15-Feb-21 12:32 34.433103 -118.442195 60 7031ft 98kts
15-Feb-21 12:33 34.442992 -118.411033 60 7657ft 101kts
15-Feb-21 12:33 34.451091 -118.384534 58 8155ft 100kts
15-Feb-21 12:35 34.463183 -118.345751 61 8468ft 146kts
15-Feb-21 12:36 34.478764 -118.302303 60 8757ft 170kts
15-Feb-21 12:36 34.491624 -118.254188 65 8749ft 185kts
15-Feb-21 12:37 34.507939 -118.197324 57 9031ft 173kts
15-Feb-21 12:39 34.526905 -118.134620 55 9342ft 166kts
15-Feb-21 12:39 34.540082 -118.091008 54 9505ft 166kts
15-Feb-21 12:41 34.559108 -118.027854 55 9501ft 173kts
15-Feb-21 12:41 34.572949 -117.981766 55 9501ft 174kts
15-Feb-21 12:42 34.589489 -117.926413 55 9501ft 175kts
15-Feb-21 12:43 34.606101 -117.870855 55 9502ft 175kts
15-Feb-21 12:44 34.622734 -117.815202 55 9500ft 175kts
15-Feb-21 12:45 34.639424 -117.759260 56 9494ft 176kts
15-Feb-21 12:46 34.656177 -117.702978 56 9488ft 177kts
15-Feb-21 12:47 34.673011 -117.646311 57 9482ft 179kts
15-Feb-21 12:48 34.689906 -117.589320 57 9476ft 179kts
15-Feb-21 12:49 34.706780 -117.532257 57 9476ft 180kts
15-Feb-21 12:50 34.723702 -117.474948 57 9477ft 180kts
15-Feb-21 12:51 34.740563 -117.417735 57 9477ft 180kts
15-Feb-21 12:52 34.757493 -117.360176 57 9477ft 180kts
15-Feb-21 12:53 34.774290 -117.302917 58 9468ft 179kts
15-Feb-21 12:54 34.789861 -117.245397 59 9465ft 179kts
15-Feb-21 12:55 34.804886 -117.187945 59 9461ft 177kts
15-Feb-21 12:56 34.819788 -117.130746 57 9451ft 176kts
15-Feb-21 12:57 34.834516 -117.074394 58 9448ft 174kts
15-Feb-21 12:58 34.849028 -117.018547 60 9446ft 172kts
15-Feb-21 12:59 34.863193 -116.963876 62 9527ft 167kts
15-Feb-21 13:00 34.877188 -116.909821 64 9528ft 168kts
15-Feb-21 13:01 34.891135 -116.855683 65 9528ft 167kts
15-Feb-21 13:02 34.905010 -116.801729 65 9528ft 166kts
15-Feb-21 13:03 34.918813 -116.747993 65 9528ft 166kts
15-Feb-21 13:04 34.932558 -116.694428 65 9528ft 165kts
15-Feb-21 13:05 34.946236 -116.640971 65 9528ft 165kts
15-Feb-21 13:06 34.959963 -116.587295 66 9530ft 165kts
15-Feb-21 13:07 34.978616 -116.536934 57 9533ft 163kts
15-Feb-21 13:08 34.998382 -116.486596 58 9537ft 165kts
15-Feb-21 13:09 35.018268 -116.436012 59 9542ft 166kts
15-Feb-21 13:10 35.038359 -116.384838 59 9548ft 168kts
15-Feb-21 13:11 35.058599 -116.333160 60 9545ft 169kts
15-Feb-21 13:12 35.078747 -116.281669 60 9545ft 168kts
15-Feb-21 13:13 35.098972 -116.229910 60 9546ft 168kts
15-Feb-21 13:14 35.119181 -116.178109 60 9547ft 169kts
15-Feb-21 13:15 35.139338 -116.126363 60 9547ft 169kts
15-Feb-21 13:16 35.159511 -116.074491 60 9547ft 169kts
15-Feb-21 13:17 35.179687 -116.022530 60 9548ft 169kts
15-Feb-21 13:18 35.199818 -115.970602 60 9548ft 169kts
15-Feb-21 13:19 35.219936 -115.918622 60 9548ft 169kts
15-Feb-21 13:20 35.247581 -115.873741 42 9543ft 165kts
15-Feb-21 13:21 35.278485 -115.832294 41 9539ft 164kts
15-Feb-21 13:22 35.309391 -115.791061 41 9534ft 164kts
15-Feb-21 13:23 35.340182 -115.749969 41 9530ft 163kts
15-Feb-21 13:24 35.370942 -115.708870 40 9525ft 163kts
15-Feb-21 13:25 35.401486 -115.668026 40 9521ft 162kts
15-Feb-21 13:26 35.431870 -115.627353 40 9521ft 162kts
15-Feb-21 13:27 35.464538 -115.583645 42 8798ft 188kts
15-Feb-21 13:28 35.500909 -115.534727 42 7975ft 195kts
15-Feb-21 13:29 35.536942 -115.486236 42 7477ft 191kts
15-Feb-21 13:30 35.573044 -115.438010 36 6974ft 191kts
15-Feb-21 13:31 35.616681 -115.402143 26 6487ft 189kts
15-Feb-21 13:32 35.662687 -115.372011 20 6077ft 186kts
15-Feb-21 13:33 35.710110 -115.346672 19 5674ft 186kts
15-Feb-21 13:34 35.758064 -115.321606 18 5258ft 187kts
15-Feb-21 13:35 35.805449 -115.297107 19 5086ft 178kts
15-Feb-21 13:36 35.850550 -115.273591 19 5087ft 175kts
15-Feb-21 13:37 35.895250 -115.250575 19 5089ft 175kts
15-Feb-21 13:38 35.940123 -115.227852 18 5089ft 175kts
15-Feb-21 13:39 35.985799 -115.209461 6 4800ft 163kts
15-Feb-21 13:40 36.023508 -115.196827 10 3492ft 114kts
15-Feb-21 13:41 36.048859 -115.185419 18 2926ft 89kts
15-Feb-21 13:42 36.071030 -115.172860 19 2348ft 86kts
15-Feb-21 13:43 36.085804 -115.164604 25 2139ft 19kts
15-Feb-21 13:44 36.089285 -115.163393 322 2127ft 0kts
15-Feb-21 13:45 36.088896 -115.164942 211 2134ft 12kts
15-Feb-21 13:46 36.084604 -115.167460 206 2152ft 17kts
15-Feb-21 13:47 36.081157 -115.170142 265 2166ft 10kts
15-Feb-21 13:48 36.080865 -115.170963 213 2168ft 0kts

Navigation Log

Ident Type
Flight plan parsing failed, navigation log unavailable